Acapulco Jet — IWUM — position and weather

sailwx.info

Track history (hours):
 
Tides and Currents Weather Stations Pressure Air Temp Water Temp Dewpoint Dewpoint Depression Visibility Wind Speed Wind Dir Waves Ship Positions

Acapulco Jet

Last reported at 2016-Aug-24 15:15 UTC. Time now 2016-Aug-28 02:19 UTC.
Position N 42°49' E 010°19'.

Length 35 m; draft 1.3 m.

Type: High speed craft. MMSI: 247050100.

Date/timePositionNaut miles runAvg speedWind from/ knotsBaromVisibWave heightAir tempDewpointWater temp
2016-Aug-24 15:15N 42°49' E 010°19'0 0.0
2016-Aug-24 14:31N 42°49' E 010°19'7 0.3
2016-Aug-23 17:31N 42°54' E 010°26'2 1.0
2016-Aug-23 15:09N 42°55' E 010°29'915.4
2016-Aug-23 14:33N 42°49' E 010°20'4 3.6
2016-Aug-23 13:33N 42°52' E 010°22'3 0.2
2016-Aug-22 17:33N 42°52' E 010°27'1 0.9
2016-Aug-22 16:34N 42°53' E 010°28'5 4.2
2016-Aug-22 15:20N 42°56' E 010°33'10 5.4
2016-Aug-22 13:33N 42°51' E 010°22'1 0.0
2016-Aug-21 13:27N 42°51' E 010°23'1 0.0
2016-Aug-20 11:24N 42°52' E 010°24'5 5.4
2016-Aug-20 10:27N 42°49' E 010°19'5 6.0
2016-Aug-20 09:33N 42°52' E 010°26'7 5.7
2016-Aug-20 08:19N 42°56' E 010°33'1214.1
2016-Aug-20 07:26N 42°49' E 010°20'12 6.5
2016-Aug-20 05:30N 42°56' E 010°33'7 0.2
2016-Aug-18 17:33N 42°52' E 010°26'0 0.0
2016-Aug-16 17:34N 42°52' E 010°26'0 0.5
2016-Aug-16 16:34N 42°52' E 010°26'6 2.8
2016-Aug-16 14:29N 42°49' E 010°19'3 3.2
2016-Aug-16 13:31N 42°51' E 010°22'9 6.3
2016-Aug-16 12:05N 42°56' E 010°33'713.0
2016-Aug-16 11:33N 42°52' E 010°25'0 0.0
2016-Aug-16 09:33N 42°52' E 010°25'6 4.2
2016-Aug-16 08:12N 42°54' E 010°32'1114.5
2016-Aug-16 07:27N 42°49' E 010°20'0 0.1
2016-Aug-16 04:32N 42°49' E 010°19'5 0.5
2016-Aug-15 17:31N 42°52' E 010°25'4 1.7
2016-Aug-15 15:05N 42°53' E 010°31'1016.3
2016-Aug-15 14:29N 42°49' E 010°19'2 1.7
2016-Aug-15 13:33N 42°50' E 010°21'4 1.9
2016-Aug-15 11:33N 42°52' E 010°26'5 4.9
2016-Aug-15 10:26N 42°49' E 010°19'5 6.0
2016-Aug-15 09:33N 42°52' E 010°25'7 5.6
2016-Aug-15 08:18N 42°56' E 010°33'1214.8
2016-Aug-15 07:29N 42°49' E 010°19'5 0.4
2016-Aug-14 17:30N 42°52' E 010°25'1 0.6
2016-Aug-14 16:30N 42°52' E 010°26'  
Track history (hours):
 
Tides and Currents Weather Stations Pressure Air Temp Water Temp Dewpoint Dewpoint Depression Visibility Wind Speed Wind Dir Waves Ship Positions

Acapulco Jet

Last reported at 2016-Aug-24 15:15 UTC. Time now 2016-Aug-28 02:19 UTC.
Position N 42°49' E 010°19'.

Length 35 m; draft 1.3 m.

Type: High speed craft. MMSI: 247050100.

Date/timePositionNaut miles runAvg speedWind from/ knotsBaromVisibWave heightAir tempDewpointWater temp
2016-Aug-24 15:15N 42°49' E 010°19'0 0.0
2016-Aug-24 14:31N 42°49' E 010°19'7 0.3
2016-Aug-23 17:31N 42°54' E 010°26'2 1.0
2016-Aug-23 15:09N 42°55' E 010°29'915.4
2016-Aug-23 14:33N 42°49' E 010°20'4 3.6
2016-Aug-23 13:33N 42°52' E 010°22'3 0.2
2016-Aug-22 17:33N 42°52' E 010°27'1 0.9
2016-Aug-22 16:34N 42°53' E 010°28'5 4.2
2016-Aug-22 15:20N 42°56' E 010°33'10 5.4
2016-Aug-22 13:33N 42°51' E 010°22'1 0.0
2016-Aug-21 13:27N 42°51' E 010°23'1 0.0
2016-Aug-20 11:24N 42°52' E 010°24'5 5.4
2016-Aug-20 10:27N 42°49' E 010°19'5 6.0
2016-Aug-20 09:33N 42°52' E 010°26'7 5.7
2016-Aug-20 08:19N 42°56' E 010°33'1214.1
2016-Aug-20 07:26N 42°49' E 010°20'12 6.5
2016-Aug-20 05:30N 42°56' E 010°33'7 0.2
2016-Aug-18 17:33N 42°52' E 010°26'0 0.0
2016-Aug-16 17:34N 42°52' E 010°26'0 0.5
2016-Aug-16 16:34N 42°52' E 010°26'6 2.8
2016-Aug-16 14:29N 42°49' E 010°19'3 3.2
2016-Aug-16 13:31N 42°51' E 010°22'9 6.3
2016-Aug-16 12:05N 42°56' E 010°33'713.0
2016-Aug-16 11:33N 42°52' E 010°25'0 0.0
2016-Aug-16 09:33N 42°52' E 010°25'6 4.2
2016-Aug-16 08:12N 42°54' E 010°32'1114.5
2016-Aug-16 07:27N 42°49' E 010°20'0 0.1
2016-Aug-16 04:32N 42°49' E 010°19'5 0.5
2016-Aug-15 17:31N 42°52' E 010°25'4 1.7
2016-Aug-15 15:05N 42°53' E 010°31'1016.3
2016-Aug-15 14:29N 42°49' E 010°19'2 1.7
2016-Aug-15 13:33N 42°50' E 010°21'4 1.9
2016-Aug-15 11:33N 42°52' E 010°26'5 4.9
2016-Aug-15 10:26N 42°49' E 010°19'5 6.0
2016-Aug-15 09:33N 42°52' E 010°25'7 5.6
2016-Aug-15 08:18N 42°56' E 010°33'1214.8
2016-Aug-15 07:29N 42°49' E 010°19'5 0.4
2016-Aug-14 17:30N 42°52' E 010°25'1 0.6
2016-Aug-14 16:30N 42°52' E 010°26'  

Dump ship's entire track history